Time;durP1;ratioP1;P1;durP2;ratioP2;P2;SDS_P1;SDS_P2;PMS_P1;PMS_P2;Temp;Humidity;BMP_temperature;BMP_pressure;BME280_temperature;BME280_humidity;BME280_pressure;Samples;Min_cycle;Max_cycle;Signal;HPM_P1;HPM_P2
2022/11/27 00:00:46;;;;;;;;;;;;;;;9.64;59.68;102507.63;4958577;28;116177;-67
2022/11/27 00:03:13;;;;;;;;;;;;;;;9.62;59.84;102504.13;4961325;28;115772;-67
2022/11/27 00:05:49;;;;;;;;;;;;;;;9.61;60.02;102502.41;4948029;28;124164;-67
2022/11/27 00:08:16;;;;;;;;;;;;;;;9.60;60.17;102505.94;4957902;28;123907;-67
2022/11/27 00:10:42;;;;;;;;;;;;;;;9.59;60.11;102493.59;4957414;28;114628;-67
2022/11/27 00:13:09;;;;;;;;;;;;;;;9.58;60.09;102491.88;4966030;28;113900;-66
2022/11/27 00:15:36;;;;;;;;;;;;;;;9.55;60.15;102483.06;4962408;28;124189;-67
2022/11/27 00:18:03;;;;;;;;;;;;;;;9.53;60.05;102487.53;4962565;28;124198;-67
2022/11/27 00:20:30;;;;;;;;;;;;;;;9.52;59.83;102480.47;4951745;28;114694;-67
2022/11/27 00:22:57;;;;;;;;;;;;;;;9.50;59.64;102474.31;4968568;28;114009;-67
2022/11/27 00:25:24;;;;;;;;;;;;;;;9.48;59.70;102473.47;4958576;28;124817;-67
2022/11/27 00:27:51;;;;;;;;;;;;;;;9.46;59.88;102471.75;4956312;28;123867;-66
2022/11/27 00:30:18;;;;;;;;;;;;;;;9.44;60.04;102461.19;4963497;28;113523;-67
2022/11/27 00:32:44;;;;;;;;;;;;;;;9.42;60.07;102459.44;4967625;28;113818;-67
2022/11/27 00:35:11;;;;;;;;;;;;;;;9.40;60.08;102462.16;4959368;28;124077;-67
2022/11/27 00:37:38;;;;;;;;;;;;;;;9.40;59.83;102461.25;4962591;28;125287;-67
2022/11/27 00:40:05;;;;;;;;;;;;;;;9.39;60.11;102465.66;4966347;28;114214;-67
2022/11/27 00:42:32;;;;;;;;;;;;;;;9.37;60.08;102462.19;4968643;28;116168;-67
2022/11/27 00:44:59;;;;;;;;;;;;;;;9.37;60.08;102451.59;4962589;28;124166;-67
2022/11/27 00:47:26;;;;;;;;;;;;;;;9.37;59.78;102446.31;4963290;28;124175;-67
2022/11/27 00:49:54;;;;;;;;;;;;;;;9.37;60.24;102443.66;4968665;28;96883;-67
2022/11/27 00:52:20;;;;;;;;;;;;;;;9.37;60.13;102451.59;4959094;28;114773;-67
2022/11/27 00:54:47;;;;;;;;;;;;;;;9.36;59.93;102449.84;4967500;28;124546;-67
2022/11/27 00:57:14;;;;;;;;;;;;;;;9.35;60.02;102442.81;4962195;28;124232;-67
2022/11/27 00:59:41;;;;;;;;;;;;;;;9.34;60.10;102446.34;4961781;28;114050;-67
2022/11/27 01:02:08;;;;;;;;;;;;;;;9.32;60.01;102449.03;4962131;28;114039;-67
2022/11/27 01:04:34;;;;;;;;;;;;;;;9.30;59.85;102449.94;4961578;28;124048;-66
2022/11/27 01:07:01;;;;;;;;;;;;;;;9.29;60.06;102446.41;4947176;28;123706;-67
2022/11/27 01:09:28;;;;;;;;;;;;;;;9.24;59.77;102448.25;4965731;28;115058;-67
2022/11/27 01:11:55;;;;;;;;;;;;;;;9.22;59.78;102441.25;4964321;28;113956;-67
2022/11/27 01:14:22;;;;;;;;;;;;;;;9.20;59.90;102437.75;4961382;28;124065;-67
2022/11/27 01:16:48;;;;;;;;;;;;;;;9.18;59.94;102439.53;4947030;28;123528;-67
2022/11/27 01:19:15;;;;;;;;;;;;;;;9.15;59.74;102441.34;4970704;28;114362;-67
2022/11/27 01:21:42;;;;;;;;;;;;;;;9.12;60.14;102436.06;4963886;28;113867;-67
2022/11/27 01:24:10;;;;;;;;;;;;;;;9.10;60.25;102427.28;4950306;28;124711;-67
2022/11/27 01:26:37;;;;;;;;;;;;;;;9.08;60.20;102426.44;4972338;28;123987;-67
2022/11/27 01:29:04;;;;;;;;;;;;;;;9.06;59.97;102422.94;4944736;28;114955;-67
2022/11/27 01:31:32;;;;;;;;;;;;;;;9.04;59.84;102427.38;4959981;28;112854;-66
2022/11/27 01:34:00;;;;;;;;;;;;;;;9.02;59.87;102429.16;4967166;28;124834;-66
2022/11/27 01:36:27;;;;;;;;;;;;;;;9.01;59.95;102431.84;4949065;28;123706;-67
2022/11/27 01:38:54;;;;;;;;;;;;;;;8.98;60.07;102427.44;4959590;28;115414;-67
2022/11/27 01:41:24;;;;;;;;;;;;;;;8.96;60.07;102429.22;4951874;28;115018;-67
2022/11/27 01:43:53;;;;;;;;;;;;;;;8.92;59.59;102422.25;4961333;28;124524;-67
2022/11/27 01:46:37;;;;;;;;;;;;;;;8.90;59.69;102421.38;4962685;28;123909;-66
2022/11/27 01:49:10;;;;;;;;;;;;;;;8.87;59.91;102418.78;4949170;28;113539;-67
2022/11/27 01:51:43;;;;;;;;;;;;;;;8.83;59.85;102406.50;4964261;28;114121;-66
2022/11/27 01:54:10;;;;;;;;;;;;;;;8.81;59.84;102409.16;4962836;28;124815;-67
2022/11/27 01:56:39;;;;;;;;;;;;;;;8.79;59.85;102404.78;4947123;28;123755;-67
2022/11/27 01:59:06;;;;;;;;;;;;;;;8.77;60.10;102408.31;4965612;28;116836;-67
2022/11/27 02:01:33;;;;;;;;;;;;;;;8.76;60.14;102409.22;4956990;28;113774;-67
2022/11/27 02:04:00;;;;;;;;;;;;;;;8.78;60.39;102403.94;4963704;28;124674;-69
2022/11/27 02:06:27;;;;;;;;;;;;;;;8.77;60.04;102397.75;4935913;28;123070;-67
2022/11/27 02:08:55;;;;;;;;;;;;;;;8.77;60.12;102384.53;4951015;28;114267;-67
2022/11/27 02:11:29;;;;;;;;;;;;;;;8.77;60.13;102373.97;4962308;28;113849;-67
2022/11/27 02:13:59;;;;;;;;;;;;;;;8.75;60.18;102362.56;4944069;28;124026;-67
2022/11/27 02:16:32;;;;;;;;;;;;;;;8.74;59.99;102344.97;4950290;28;124982;-67
2022/11/27 02:19:11;;;;;;;;;;;;;;;8.74;60.24;102347.63;4932935;28;114099;-66
2022/11/27 02:21:45;;;;;;;;;;;;;;;8.73;60.21;102337.94;4960181;28;113948;-67
2022/11/27 02:24:22;;;;;;;;;;;;;;;8.74;60.27;102334.41;4936947;28;124017;-67
2022/11/27 02:27:04;;;;;;;;;;;;;;;8.75;60.27;102325.56;4964483;28;124146;-66
2022/11/27 02:29:32;;;;;;;;;;;;;;;8.76;60.18;102321.19;4956920;28;116114;-67
2022/11/27 02:32:08;;;;;;;;;;;;;;;8.76;60.14;102314.13;4959539;28;114684;-67
2022/11/27 02:34:35;;;;;;;;;;;;;;;8.77;60.38;102313.22;4955600;28;124339;-67
2022/11/27 02:37:12;;;;;;;;;;;;;;;8.77;60.25;102297.38;4942875;28;124866;-67
2022/11/27 02:39:43;;;;;;;;;;;;;;;8.77;60.48;102292.09;4941040;28;113322;-67
2022/11/27 02:42:17;;;;;;;;;;;;;;;8.77;60.25;102286.81;4960551;28;114782;-67
2022/11/27 02:44:46;;;;;;;;;;;;;;;8.77;60.14;102292.09;4937156;28;124003;-67
2022/11/27 02:47:14;;;;;;;;;;;;;;;8.76;60.26;102290.34;4969441;28;124032;-67
2022/11/27 02:49:41;;;;;;;;;;;;;;;8.76;60.40;102293.00;4949017;28;114349;-66
2022/11/27 02:52:11;;;;;;;;;;;;;;;8.77;60.35;102302.66;4961359;28;113556;-67
2022/11/27 02:54:39;;;;;;;;;;;;;;;8.78;60.44;102298.25;4959851;28;125413;-67
2022/11/27 02:57:08;;;;;;;;;;;;;;;8.80;60.38;102300.84;4962049;28;124093;-67
2022/11/27 02:59:36;;;;;;;;;;;;;;;8.81;60.30;102307.91;4962463;28;115240;-66
2022/11/27 03:02:08;;;;;;;;;;;;;;;8.84;60.26;102313.16;4962412;28;114410;-67
2022/11/27 03:04:43;;;;;;;;;;;;;;;8.84;60.30;102307.88;4958230;28;123786;-67
2022/11/27 03:07:20;;;;;;;;;;;;;;;8.84;60.18;102303.44;4963014;28;124369;-67
2022/11/27 03:09:48;;;;;;;;;;;;;;;8.86;60.17;102292.88;4961727;28;113553;-67
2022/11/27 03:12:17;;;;;;;;;;;;;;;8.86;60.24;102291.09;4954755;28;114740;-67
2022/11/27 03:14:44;;;;;;;;;;;;;;;8.88;60.10;102293.72;4958358;28;123961;-67
2022/11/27 03:17:29;;;;;;;;;;;;;;;8.90;60.07;102297.22;4965122;28;123922;-67
2022/11/27 03:19:59;;;;;;;;;;;;;;;8.90;60.43;102292.78;4962943;28;116118;-67
2022/11/27 03:22:26;;;;;;;;;;;;;;;8.91;60.24;102293.66;4966989;28;115969;-67
2022/11/27 03:24:54;;;;;;;;;;;;;;;8.94;60.09;102298.91;4965126;28;124806;-66
2022/11/27 03:27:24;;;;;;;;;;;;;;;8.94;60.45;102289.19;4959640;28;124211;-67
2022/11/27 03:29:53;;;;;;;;;;;;;;;8.97;60.60;102283.00;4940685;28;113989;-67
2022/11/27 03:32:20;;;;;;;;;;;;;;;8.99;60.20;102286.50;4966486;28;113725;-67
2022/11/27 03:34:47;;;;;;;;;;;;;;;9.00;60.28;102282.94;4960024;28;124613;-67
2022/11/27 03:37:14;;;;;;;;;;;;;;;9.01;60.27;102274.13;4960527;28;125982;-67
2022/11/27 03:39:41;;;;;;;;;;;;;;;9.03;60.39;102272.34;4963305;28;115107;-67
2022/11/27 03:42:13;;;;;;;;;;;;;;;9.04;60.31;102279.38;4966393;28;113978;-68
2022/11/27 03:44:44;;;;;;;;;;;;;;;9.05;59.99;102275.84;4957240;28;125142;-67
2022/11/27 03:47:18;;;;;;;;;;;;;;;9.07;60.45;102274.03;4958318;28;123469;-67
2022/11/27 03:50:08;;;;;;;;;;;;;;;9.11;60.33;102286.28;4952197;28;113986;-67
2022/11/27 03:52:43;;;;;;;;;;;;;;;9.13;60.25;102278.34;4952470;28;113135;-67
2022/11/27 03:55:22;;;;;;;;;;;;;;;9.14;60.40;102280.97;4957814;28;123344;-67
2022/11/27 03:57:54;;;;;;;;;;;;;;;9.14;60.52;102270.41;4966019;28;123806;-67
2022/11/27 04:00:21;;;;;;;;;;;;;;;9.16;60.27;102273.88;4960484;28;114650;-67
2022/11/27 04:02:52;;;;;;;;;;;;;;;9.17;60.33;102256.25;4936606;28;114411;-67
2022/11/27 04:05:19;;;;;;;;;;;;;;;9.19;60.46;102256.22;4960742;28;124227;-67
2022/11/27 04:07:46;;;;;;;;;;;;;;;9.20;60.12;102258.00;4961493;28;125179;-67
2022/11/27 04:10:13;;;;;;;;;;;;;;;9.22;60.16;102250.91;4967086;28;115604;-67
2022/11/27 04:12:39;;;;;;;;;;;;;;;9.25;60.20;102262.31;4957230;28;114823;-67
2022/11/27 04:15:07;;;;;;;;;;;;;;;9.27;60.25;102259.63;4962150;28;124677;-67
2022/11/27 04:17:33;;;;;;;;;;;;;;;9.28;60.05;102253.44;4945599;28;123493;-67
2022/11/27 04:20:00;;;;;;;;;;;;;;;9.30;60.19;102255.16;4966345;28;114563;-67
2022/11/27 04:22:27;;;;;;;;;;;;;;;9.32;60.33;102252.47;4964103;28;112159;-67
2022/11/27 04:24:54;;;;;;;;;;;;;;;9.34;60.14;102245.41;4963146;28;124931;-67
2022/11/27 04:27:21;;;;;;;;;;;;;;;9.35;59.98;102247.16;4944911;28;122185;-67
2022/11/27 04:29:48;;;;;;;;;;;;;;;9.35;60.07;102247.16;4966805;28;114370;-67
2022/11/27 04:32:16;;;;;;;;;;;;;;;9.35;60.02;102252.44;4961416;28;113401;-67
2022/11/27 04:34:43;;;;;;;;;;;;;;;9.36;60.26;102243.59;4952176;28;124818;-67
2022/11/27 04:37:09;;;;;;;;;;;;;;;9.37;60.07;102248.00;4971346;28;125648;-67
2022/11/27 04:39:36;;;;;;;;;;;;;;;9.36;60.18;102248.88;4964478;28;114373;-67
2022/11/27 04:42:03;;;;;;;;;;;;;;;9.37;60.15;102242.72;4963148;28;113921;-67
2022/11/27 04:44:30;;;;;;;;;;;;;;;9.37;60.16;102250.63;4966801;28;124046;-67
2022/11/27 04:46:57;;;;;;;;;;;;;;;9.39;60.01;102248.84;4964132;28;124728;-67
2022/11/27 04:49:24;;;;;;;;;;;;;;;9.39;59.94;102251.47;4940990;28;113881;-67
2022/11/27 04:51:51;;;;;;;;;;;;;;;9.40;60.18;102245.31;4967783;28;114396;-67
2022/11/27 04:54:17;;;;;;;;;;;;;;;9.42;60.31;102264.66;4948036;28;124202;-67
2022/11/27 04:56:44;;;;;;;;;;;;;;;9.43;60.25;102239.94;4950085;28;123987;-67
2022/11/27 04:59:11;;;;;;;;;;;;;;;9.44;60.28;102240.84;4946481;28;115416;-67
2022/11/27 05:01:38;;;;;;;;;;;;;;;9.44;60.21;102236.41;4942190;28;113980;-67
2022/11/27 05:04:05;;;;;;;;;;;;;;;9.44;60.16;102236.41;4964480;28;124149;-67
2022/11/27 05:06:31;;;;;;;;;;;;;;;9.44;60.03;102231.13;4962057;28;124732;-67
2022/11/27 05:09:00;;;;;;;;;;;;;;;9.42;60.02;102219.72;4965747;28;115647;-67
2022/11/27 05:11:28;;;;;;;;;;;;;;;9.42;60.15;102211.78;4962506;28;113689;-67
2022/11/27 05:16:45;;;;;;;;;;;;;;;9.41;59.96;102210.00;4961309;28;123803;-67
2022/11/27 05:19:13;;;;;;;;;;;;;;;9.40;60.08;102213.56;4966592;28;115182;-67
2022/11/27 05:21:40;;;;;;;;;;;;;;;9.41;60.13;102219.72;4963773;28;114389;-67
2022/11/27 05:24:07;;;;;;;;;;;;;;;9.42;60.03;102205.59;4946544;28;122995;-67
2022/11/27 05:26:35;;;;;;;;;;;;;;;9.42;60.08;102193.25;4965093;28;124203;-67
2022/11/27 05:29:02;;;;;;;;;;;;;;;9.41;60.04;102199.44;4962482;28;114952;-67
2022/11/27 05:31:29;;;;;;;;;;;;;;;9.40;60.00;102197.72;4968894;28;114097;-67
2022/11/27 05:33:56;;;;;;;;;;;;;;;9.39;59.85;102190.66;4963828;28;124197;-67
2022/11/27 05:36:23;;;;;;;;;;;;;;;9.38;60.10;102199.50;4963218;28;125280;-67
2022/11/27 05:38:50;;;;;;;;;;;;;;;9.39;60.08;102195.97;4960171;28;114266;-67
2022/11/27 05:41:17;;;;;;;;;;;;;;;9.40;59.79;102181.84;4949757;28;114135;-67
2022/11/27 05:43:44;;;;;;;;;;;;;;;9.40;59.99;102183.59;4964785;28;127446;-67
2022/11/27 05:46:12;;;;;;;;;;;;;;;9.39;59.74;102182.72;4962455;28;124566;-67
2022/11/27 05:48:39;;;;;;;;;;;;;;;9.39;60.06;102172.16;4958924;28;115960;-67
2022/11/27 05:51:06;;;;;;;;;;;;;;;9.40;59.88;102171.28;4966740;28;115066;-66
2022/11/27 05:53:33;;;;;;;;;;;;;;;9.40;60.09;102171.28;4963121;28;123907;-67
2022/11/27 05:56:05;;;;;;;;;;;;;;;9.40;60.13;102176.56;4965124;28;124017;-68
2022/11/27 05:58:32;;;;;;;;;;;;;;;9.40;60.20;102176.56;4960102;28;114431;-68
2022/11/27 06:00:59;;;;;;;;;;;;;;;9.40;60.09;102165.09;4948264;28;113042;-68
2022/11/27 06:03:26;;;;;;;;;;;;;;;9.41;59.90;102178.28;4946349;28;124856;-69
2022/11/27 06:05:53;;;;;;;;;;;;;;;9.41;60.17;102170.34;4967259;28;124667;-69
2022/11/27 06:08:20;;;;;;;;;;;;;;;9.44;60.01;102162.38;4964423;28;114186;-69
2022/11/27 06:10:47;;;;;;;;;;;;;;;9.46;60.01;102162.34;4936811;28;112750;-69
2022/11/27 06:13:14;;;;;;;;;;;;;;;9.47;59.84;102161.44;4964808;28;124161;-67
2022/11/27 06:15:41;;;;;;;;;;;;;;;9.47;59.87;102164.94;4961071;28;123923;-66
2022/11/27 06:18:09;;;;;;;;;;;;;;;9.49;59.89;102160.53;4942419;28;114530;-67
2022/11/27 06:20:36;;;;;;;;;;;;;;;9.50;59.94;102162.25;4959465;28;113713;-66
2022/11/27 06:23:09;;;;;;;;;;;;;;;9.52;60.04;102160.44;4961738;28;123968;-67
2022/11/27 06:25:36;;;;;;;;;;;;;;;9.52;59.97;102155.16;4960402;28;124029;-67
2022/11/27 06:28:03;;;;;;;;;;;;;;;9.54;59.99;102153.34;4966765;28;114458;-67
2022/11/27 06:30:30;;;;;;;;;;;;;;;9.55;59.99;102133.94;4945234;28;112736;-67
2022/11/27 06:32:56;;;;;;;;;;;;;;;9.56;60.11;102153.31;4941695;28;124246;-67
2022/11/27 06:35:23;;;;;;;;;;;;;;;9.58;59.86;102142.72;4963240;28;125432;-67
2022/11/27 06:37:50;;;;;;;;;;;;;;;9.57;59.75;102136.56;4956203;28;115963;-67
2022/11/27 06:40:17;;;;;;;;;;;;;;;9.57;60.07;102135.66;4964321;28;114860;-67
2022/11/27 06:42:44;;;;;;;;;;;;;;;9.58;59.73;102137.44;4958174;28;124893;-66
2022/11/27 06:45:11;;;;;;;;;;;;;;;9.58;59.77;102137.44;4965167;28;124374;-68
2022/11/27 06:47:37;;;;;;;;;;;;;;;9.57;60.04;102130.38;4963336;28;114730;-67
2022/11/27 06:50:05;;;;;;;;;;;;;;;9.59;59.82;102133.88;4943748;28;112485;-67
2022/11/27 06:52:31;;;;;;;;;;;;;;;9.59;59.87;102133.88;4961348;28;124319;-67
2022/11/27 06:55:06;;;;;;;;;;;;;;;9.61;59.97;102135.59;4958091;28;123999;-67
2022/11/27 06:57:33;;;;;;;;;;;;;;;9.63;60.00;102135.56;4962100;28;114372;-67
2022/11/27 06:59:59;;;;;;;;;;;;;;;9.65;59.85;102137.28;4958554;28;114630;-67
2022/11/27 07:02:26;;;;;;;;;;;;;;;9.66;59.90;102136.38;4959688;28;124184;-67
2022/11/27 07:04:53;;;;;;;;;;;;;;;9.69;60.03;102135.44;4948114;28;124393;-67
2022/11/27 07:07:20;;;;;;;;;;;;;;;9.69;59.98;102140.72;4952094;28;113566;-67
2022/11/27 07:09:47;;;;;;;;;;;;;;;9.71;59.93;102128.34;4963112;28;113792;-67
2022/11/27 07:12:14;;;;;;;;;;;;;;;9.71;59.77;102128.34;4950601;28;125880;-68
2022/11/27 07:14:40;;;;;;;;;;;;;;;9.73;60.01;102129.16;4959619;28;123873;-67
2022/11/27 07:17:08;;;;;;;;;;;;;;;9.73;59.92;102121.22;4961471;28;115840;-68
2022/11/27 07:19:34;;;;;;;;;;;;;;;9.75;59.96;102122.06;4962541;28;113360;-67
2022/11/27 07:22:01;;;;;;;;;;;;;;;9.77;59.95;102117.63;4937979;28;123950;-68
2022/11/27 07:24:28;;;;;;;;;;;;;;;9.79;59.85;102115.81;4966148;28;124972;-67
2022/11/27 07:26:55;;;;;;;;;;;;;;;9.81;59.93;102108.72;4952136;28;115360;-68
2022/11/27 07:29:22;;;;;;;;;;;;;;;9.83;60.06;102106.94;4952996;28;114429;-67
2022/11/27 07:31:50;;;;;;;;;;;;;;;9.83;59.90;102103.38;4932968;28;124401;-67
2022/11/27 07:34:17;;;;;;;;;;;;;;;9.83;59.89;102106.94;4956179;28;124041;-67
2022/11/27 07:36:47;;;;;;;;;;;;;;;9.83;59.76;102091.06;4942356;28;114506;-67
2022/11/27 07:39:15;;;;;;;;;;;;;;;9.85;59.84;102107.75;4963342;28;114318;-68
2022/11/27 07:41:59;;;;;;;;;;;;;;;9.85;59.78;102101.56;4959707;28;124084;-68
2022/11/27 07:44:46;;;;;;;;;;;;;;;9.84;60.06;102098.06;4955872;28;123402;-68
2022/11/27 07:47:13;;;;;;;;;;;;;;;9.85;59.64;102094.53;4960860;28;114893;-68
2022/11/27 07:49:40;;;;;;;;;;;;;;;9.84;59.79;102092.78;4950139;28;113137;-67
2022/11/27 07:52:07;;;;;;;;;;;;;;;9.84;59.71;102092.78;4960862;28;124360;-67
2022/11/27 07:54:35;;;;;;;;;;;;;;;9.84;59.79;102092.78;4964336;28;123441;-67
2022/11/27 07:57:01;;;;;;;;;;;;;;;9.85;60.04;102083.94;4955124;28;114356;-68
2022/11/27 07:59:28;;;;;;;;;;;;;;;9.84;59.80;102079.53;4960199;28;114000;-68
2022/11/27 08:01:55;;;;;;;;;;;;;;;9.86;59.83;102075.09;4957573;28;124375;-67
2022/11/27 08:04:23;;;;;;;;;;;;;;;9.86;59.88;102069.78;4953701;28;124534;-68
2022/11/27 08:06:50;;;;;;;;;;;;;;;9.87;59.94;102071.56;4969398;28;114421;-68
2022/11/27 08:09:16;;;;;;;;;;;;;;;9.88;59.70;102062.69;4967940;28;113596;-68
2022/11/27 08:11:43;;;;;;;;;;;;;;;9.87;59.82;102063.63;4970732;28;124953;-68
2022/11/27 08:14:11;;;;;;;;;;;;;;;9.86;59.86;102067.16;4963532;28;123016;-68
2022/11/27 08:16:38;;;;;;;;;;;;;;;9.86;59.89;102056.56;4974436;28;114872;-68
2022/11/27 08:19:05;;;;;;;;;;;;;;;9.85;59.88;102057.47;4976814;28;114072;-68
2022/11/27 08:21:32;;;;;;;;;;;;;;;9.85;59.73;102052.19;4974272;28;124145;-67
2022/11/27 08:23:58;;;;;;;;;;;;;;;9.87;59.97;102049.50;4974293;28;123900;-68
2022/11/27 08:26:26;;;;;;;;;;;;;;;9.86;59.94;102053.91;4960628;28;115234;-68
2022/11/27 08:28:53;;;;;;;;;;;;;;;9.86;59.74;102050.41;4981571;28;113625;-68
2022/11/27 08:31:20;;;;;;;;;;;;;;;9.85;59.87;102046.91;4935966;28;123624;-68
2022/11/27 08:33:47;;;;;;;;;;;;;;;9.85;59.82;102052.19;4967579;28;124195;-68
2022/11/27 08:36:14;;;;;;;;;;;;;;;9.84;59.79;102039.84;4953447;28;114470;-68
2022/11/27 08:38:44;;;;;;;;;;;;;;;9.84;59.63;102037.22;4962417;28;113804;-68
2022/11/27 08:41:11;;;;;;;;;;;;;;;9.84;59.85;102034.56;4963280;28;124479;-68
2022/11/27 08:43:38;;;;;;;;;;;;;;;9.84;59.79;102031.91;4959280;28;123813;-68
2022/11/27 08:46:06;;;;;;;;;;;;;;;9.83;59.80;102031.94;4966770;28;113323;-68
2022/11/27 08:48:33;;;;;;;;;;;;;;;9.81;59.94;102031.97;4962340;28;113103;-68
2022/11/27 08:51:04;;;;;;;;;;;;;;;9.82;59.91;102028.44;4960954;28;124206;-68
2022/11/27 08:53:31;;;;;;;;;;;;;;;9.83;60.07;102027.53;4961804;28;123216;-68
2022/11/27 08:56:03;;;;;;;;;;;;;;;9.84;60.08;102023.97;4964267;28;114864;-68
2022/11/27 08:58:30;;;;;;;;;;;;;;;9.85;59.91;102016.91;4957179;28;113732;-68
2022/11/27 09:00:57;;;;;;;;;;;;;;;9.85;59.88;102020.44;4959174;28;124428;-68
2022/11/27 09:03:24;;;;;;;;;;;;;;;9.87;59.95;102023.91;4965755;28;124045;-68
2022/11/27 09:05:51;;;;;;;;;;;;;;;9.88;60.07;102015.06;4961151;28;115084;-68
2022/11/27 09:08:20;;;;;;;;;;;;;;;9.88;60.03;102015.06;4962884;28;115605;-69
2022/11/27 09:10:47;;;;;;;;;;;;;;;9.89;60.01;102016.81;4955573;28;124134;-68
2022/11/27 09:13:13;;;;;;;;;;;;;;;9.90;60.06;102013.25;4967330;28;123813;-68
2022/11/27 09:15:40;;;;;;;;;;;;;;;9.91;59.84;102015.00;4960093;28;114596;-68
2022/11/27 09:18:07;;;;;;;;;;;;;;;9.91;59.99;102003.56;4960177;28;113424;-67
2022/11/27 09:20:34;;;;;;;;;;;;;;;9.93;59.98;102007.88;4953700;28;124073;-69
2022/11/27 09:23:01;;;;;;;;;;;;;;;9.93;59.97;102007.88;4956648;28;123950;-68
2022/11/27 09:25:28;;;;;;;;;;;;;;;9.94;60.17;102001.72;4959633;28;114135;-68
2022/11/27 09:27:55;;;;;;;;;;;;;;;9.94;59.97;101996.41;4952318;28;113629;-68
2022/11/27 09:30:21;;;;;;;;;;;;;;;9.96;60.08;101999.00;4951417;28;124267;-68
2022/11/27 09:32:48;;;;;;;;;;;;;;;9.97;60.02;101994.59;4948649;28;124024;-68
2022/11/27 09:35:15;;;;;;;;;;;;;;;9.98;60.33;102004.25;4956675;28;114591;-68
2022/11/27 09:37:42;;;;;;;;;;;;;;;10.02;60.12;102016.50;4955411;28;113623;-68
2022/11/27 09:40:13;;;;;;;;;;;;;;;10.03;60.20;102012.97;4938605;28;123327;-68
2022/11/27 09:42:45;;;;;;;;;;;;;;;10.07;60.10;101998.75;4968826;28;124058;-68
2022/11/27 09:45:13;;;;;;;;;;;;;;;10.09;60.29;102010.16;4942922;28;114601;-68
2022/11/27 09:47:43;;;;;;;;;;;;;;;10.12;60.10;102012.75;4943946;28;113272;-68
2022/11/27 09:50:09;;;;;;;;;;;;;;;10.15;60.00;102023.25;4962414;28;123624;-68
2022/11/27 09:52:45;;;;;;;;;;;;;;;10.19;60.21;102019.63;4951164;28;124176;-68
2022/11/27 09:55:19;;;;;;;;;;;;;;;10.22;60.16;102019.53;4962750;28;115235;-67
2022/11/27 09:57:57;;;;;;;;;;;;;;;10.25;60.17;102016.84;4969923;28;114651;-67
2022/11/27 10:00:25;;;;;;;;;;;;;;;10.29;60.22;102015.84;4969082;28;124290;-68
2022/11/27 10:02:52;;;;;;;;;;;;;;;10.33;60.22;102006.94;4936355;28;123198;-68
2022/11/27 10:05:25;;;;;;;;;;;;;;;10.37;60.08;102009.53;4964268;28;114008;-68
2022/11/27 10:07:58;;;;;;;;;;;;;;;10.40;60.00;102012.09;4950268;28;113283;-68
2022/11/27 10:10:39;;;;;;;;;;;;;;;10.43;60.06;102001.41;4954503;28;124147;-68
2022/11/27 10:13:09;;;;;;;;;;;;;;;10.47;60.07;102008.38;4957660;28;124271;-68
2022/11/27 10:15:42;;;;;;;;;;;;;;;10.52;60.10;102006.47;4963299;28;114136;-68
2022/11/27 10:18:16;;;;;;;;;;;;;;;10.54;60.14;101999.34;4950221;28;113371;-68
2022/11/27 10:20:55;;;;;;;;;;;;;;;10.57;60.01;101988.69;4955969;28;123914;-69
2022/11/27 10:23:22;;;;;;;;;;;;;;;10.60;60.10;101987.72;4969811;28;124174;-68
2022/11/27 10:25:51;;;;;;;;;;;;;;;10.61;60.11;101979.75;4961409;28;114098;-69
2022/11/27 10:28:30;;;;;;;;;;;;;;;10.63;60.10;101977.91;4961385;28;113810;-68
2022/11/27 10:31:02;;;;;;;;;;;;;;;10.62;60.10;101965.56;4952503;28;124108;-68
2022/11/27 10:33:35;;;;;;;;;;;;;;;10.64;60.36;101958.47;4953860;28;124333;-67
2022/11/27 10:36:04;;;;;;;;;;;;;;;10.66;60.05;101961.94;4960423;28;115150;-69
2022/11/27 10:38:34;;;;;;;;;;;;;;;10.67;60.03;101947.78;4964938;28;113843;-68
2022/11/27 10:41:07;;;;;;;;;;;;;;;10.68;60.09;101949.53;4967434;28;124002;-69
2022/11/27 10:43:37;;;;;;;;;;;;;;;10.70;60.18;101945.06;4965065;28;123582;-68
2022/11/27 10:46:13;;;;;;;;;;;;;;;10.71;60.18;101944.13;4964414;28;116128;-68
2022/11/27 10:48:40;;;;;;;;;;;;;;;10.74;60.21;101939.66;4964258;28;114883;-68
2022/11/27 10:51:14;;;;;;;;;;;;;;;10.77;60.11;101936.91;4967098;28;125240;-68
2022/11/27 10:53:41;;;;;;;;;;;;;;;10.79;60.01;101938.59;4952524;28;124787;-69
2022/11/27 10:56:13;;;;;;;;;;;;;;;10.80;60.19;101936.84;4953289;28;114317;-68
2022/11/27 10:58:44;;;;;;;;;;;;;;;10.81;60.07;101944.75;4949643;28;113785;-68
2022/11/27 11:01:12;;;;;;;;;;;;;;;10.84;59.95;101927.88;4935554;28;123581;-68
2022/11/27 11:03:39;;;;;;;;;;;;;;;10.85;60.21;101919.00;4953671;28;124057;-68
2022/11/27 11:06:14;;;;;;;;;;;;;;;10.86;60.11;101915.47;4963196;28;114948;-67
2022/11/27 11:08:59;;;;;;;;;;;;;;;10.86;59.90;101910.16;4949252;28;112914;-68
2022/11/27 11:11:27;;;;;;;;;;;;;;;10.85;59.94;101909.31;4932608;28;124436;-68
2022/11/27 11:13:54;;;;;;;;;;;;;;;10.87;60.16;101914.56;4951149;28;124034;-68
2022/11/27 11:16:22;;;;;;;;;;;;;;;10.87;60.03;101907.47;4974274;28;114936;-68
2022/11/27 11:18:52;;;;;;;;;;;;;;;10.90;60.08;101901.19;4953582;28;113990;-68
2022/11/27 11:21:22;;;;;;;;;;;;;;;10.93;60.22;101895.81;4955571;28;125685;-68
2022/11/27 11:23:56;;;;;;;;;;;;;;;10.94;60.12;101886.94;4952794;28;124693;-68
2022/11/27 11:26:27;;;;;;;;;;;;;;;10.96;60.07;101895.72;4953264;28;113650;-68
2022/11/27 11:28:57;;;;;;;;;;;;;;;10.98;60.08;101891.25;4957951;28;113737;-68
2022/11/27 11:31:32;;;;;;;;;;;;;;;10.99;60.07;101879.72;4953157;28;124906;-68
2022/11/27 11:34:15;;;;;;;;;;;;;;;10.98;59.90;101878.00;4936857;28;124442;-68
2022/11/27 11:36:52;;;;;;;;;;;;;;;10.97;59.95;101875.41;4957143;28;115151;-68
2022/11/27 11:39:26;;;;;;;;;;;;;;;10.99;60.15;101873.56;4939862;28;116073;-68
2022/11/27 11:41:53;;;;;;;;;;;;;;;10.99;59.93;101869.13;4954563;28;124414;-68
2022/11/27 11:44:28;;;;;;;;;;;;;;;11.00;59.98;101857.63;4948703;28;123697;-68
2022/11/27 11:46:55;;;;;;;;;;;;;;;11.01;60.10;101872.59;4949362;28;114462;-69
2022/11/27 11:49:23;;;;;;;;;;;;;;;11.01;60.05;101856.69;4956726;28;114353;-68
2022/11/27 11:52:09;;;;;;;;;;;;;;;11.02;60.10;101861.09;4953457;28;124106;-68
2022/11/27 11:54:45;;;;;;;;;;;;;;;11.03;60.12;101854.00;4954637;28;122564;-68
2022/11/27 11:57:27;;;;;;;;;;;;;;;11.04;60.18;101846.00;4959123;28;113451;-68
2022/11/27 12:00:14;;;;;;;;;;;;;;;11.04;59.99;101846.00;4959450;28;114785;-68
2022/11/27 12:02:56;;;;;;;;;;;;;;;11.02;60.04;101837.22;4966059;28;125123;-68
2022/11/27 12:05:39;;;;;;;;;;;;;;;11.02;60.06;101826.63;4935820;28;123798;-67
2022/11/27 12:08:19;;;;;;;;;;;;;;;11.03;60.01;101828.34;4954851;28;115032;-68
2022/11/27 12:10:48;;;;;;;;;;;;;;;11.03;60.14;101812.44;4955993;28;113657;-68
2022/11/27 12:13:21;;;;;;;;;;;;;;;11.04;60.24;101802.72;4961258;28;124186;-68
2022/11/27 12:15:51;;;;;;;;;;;;;;;11.03;60.12;101807.13;4930584;28;123702;-68
2022/11/27 12:18:24;;;;;;;;;;;;;;;11.03;60.19;101796.53;4956827;28;115003;-68
2022/11/27 12:21:09;;;;;;;;;;;;;;;11.02;60.16;101778.91;4959364;28;113955;-68
2022/11/27 12:23:55;;;;;;;;;;;;;;;11.02;60.23;101770.97;4948315;28;124466;-67
2022/11/27 12:26:22;;;;;;;;;;;;;;;11.02;60.09;101756.81;4943087;28;122872;-68
2022/11/27 12:28:54;;;;;;;;;;;;;;;11.03;60.08;101754.13;4955912;28;115147;-67
2022/11/27 12:31:42;;;;;;;;;;;;;;;11.03;60.20;101743.50;4962475;28;115450;-68
2022/11/27 12:34:19;;;;;;;;;;;;;;;11.07;60.22;101745.16;4955430;28;122995;-68
2022/11/27 12:37:03;;;;;;;;;;;;;;;11.07;60.35;101739.84;4985883;28;123521;-68
2022/11/27 12:39:50;;;;;;;;;;;;;;;11.08;60.12;101732.78;4958993;28;115182;-67
2022/11/27 12:42:20;;;;;;;;;;;;;;;11.08;60.20;101746.91;4943757;28;113011;-67
2022/11/27 12:45:06;;;;;;;;;;;;;;;11.10;60.34;101739.75;4965773;28;123342;-68
2022/11/27 12:47:37;;;;;;;;;;;;;;;11.12;60.13;101736.19;4953499;28;125356;-67